createdAt,value
2022-09-06T00:02:19.588Z,15.98
2022-09-06T00:04:46.562Z,15.94
2022-09-06T00:07:13.479Z,15.77
2022-09-06T00:09:40.471Z,15.68
2022-09-06T00:12:07.553Z,15.79
2022-09-06T00:14:34.417Z,15.95
2022-09-06T00:17:01.454Z,15.98
2022-09-06T00:19:28.282Z,16.01
2022-09-06T00:21:55.089Z,16.01
2022-09-06T00:24:21.929Z,16.09
2022-09-06T00:26:48.777Z,16.12
2022-09-06T00:29:15.665Z,16.12
2022-09-06T00:31:42.474Z,15.98
2022-09-06T00:34:09.390Z,16.02
2022-09-06T00:36:36.499Z,16.07
2022-09-06T00:39:03.643Z,16.05
2022-09-06T00:41:30.729Z,16.12
2022-09-06T00:43:57.785Z,16.14
2022-09-06T00:46:27.775Z,16.05
2022-09-06T00:48:59.142Z,16.07
2022-09-06T00:51:27.329Z,16.02
2022-09-06T00:53:54.500Z,16.02
2022-09-06T00:56:21.522Z,15.77
2022-09-06T00:58:48.880Z,15.58
2022-09-06T01:01:15.838Z,15.54
2022-09-06T01:03:43.116Z,15.29
2022-09-06T01:06:24.633Z,15.56
2022-09-06T01:09:17.233Z,15.55
2022-09-06T01:12:02.760Z,15.57
2022-09-06T01:15:06.539Z,15.56
2022-09-06T01:17:36.184Z,15.60
2022-09-06T01:20:36.543Z,15.57
2022-09-06T01:23:21.664Z,15.76
2022-09-06T01:25:48.444Z,15.82
2022-09-06T01:28:27.631Z,15.84
2022-09-06T01:31:02.977Z,15.81
2022-09-06T01:33:56.011Z,15.84
2022-09-06T01:36:27.330Z,15.77
2022-09-06T01:38:54.269Z,15.50
2022-09-06T01:41:21.188Z,15.20
2022-09-06T01:43:50.805Z,15.19
2022-09-06T01:46:43.911Z,15.19
2022-09-06T01:49:29.340Z,15.35
2022-09-06T01:52:27.020Z,15.45
2022-09-06T01:55:37.159Z,15.48
2022-09-06T01:58:16.038Z,15.49
2022-09-06T02:01:08.863Z,15.55
2022-09-06T02:03:59.150Z,15.45
2022-09-06T02:06:29.615Z,15.45
2022-09-06T02:09:12.984Z,15.41
2022-09-06T02:11:47.469Z,15.43
2022-09-06T02:14:18.388Z,15.15
2022-09-06T02:16:46.888Z,15.02
2022-09-06T02:19:39.557Z,14.75
2022-09-06T02:22:09.113Z,14.97
2022-09-06T02:24:37.389Z,15.07
2022-09-06T02:27:04.712Z,15.15
2022-09-06T02:29:31.749Z,15.21
2022-09-06T02:32:07.269Z,15.23
2022-09-06T02:34:37.834Z,15.31
2022-09-06T02:37:05.842Z,15.31
2022-09-06T02:39:32.965Z,15.31
2022-09-06T02:42:00.959Z,15.34
2022-09-06T02:44:27.898Z,15.41
2022-09-06T02:46:57.089Z,15.36
2022-09-06T02:49:24.918Z,15.37
2022-09-06T02:51:51.808Z,15.43
2022-09-06T02:54:18.697Z,15.48
2022-09-06T02:56:47.998Z,15.18
2022-09-06T02:59:18.539Z,15.33
2022-09-06T03:01:45.520Z,15.39
2022-09-06T03:04:12.540Z,15.48
2022-09-06T03:06:39.413Z,15.54
2022-09-06T03:09:06.523Z,15.61
2022-09-06T03:11:33.397Z,15.64
2022-09-06T03:14:00.300Z,15.67
2022-09-06T03:16:27.206Z,15.69
2022-09-06T03:18:54.102Z,15.77
2022-09-06T03:21:20.965Z,15.80
2022-09-06T03:23:47.924Z,15.79
2022-09-06T03:26:14.798Z,15.76
2022-09-06T03:28:42.999Z,15.67
2022-09-06T03:31:10.092Z,15.38
2022-09-06T03:33:37.236Z,15.27
2022-09-06T03:36:04.408Z,15.18
2022-09-06T03:38:31.350Z,15.26
2022-09-06T03:40:58.448Z,15.32
2022-09-06T03:43:26.321Z,15.34
2022-09-06T03:45:55.241Z,15.29
2022-09-06T03:48:23.968Z,15.36
2022-09-06T03:50:53.173Z,15.41
2022-09-06T03:53:20.484Z,15.52
2022-09-06T03:55:49.183Z,15.56
2022-09-06T03:58:17.415Z,15.58
2022-09-06T04:00:44.649Z,15.58
2022-09-06T04:03:11.730Z,15.46
2022-09-06T04:05:39.666Z,15.46
2022-09-06T04:08:06.602Z,15.50
2022-09-06T04:10:33.977Z,15.54
2022-09-06T04:13:00.968Z,15.47
2022-09-06T04:15:27.854Z,15.43
2022-09-06T04:17:54.842Z,15.41
2022-09-06T04:20:21.804Z,15.44
2022-09-06T04:22:48.686Z,15.48
2022-09-06T04:25:15.635Z,15.47
2022-09-06T04:27:42.491Z,15.52
2022-09-06T04:30:09.757Z,15.51
2022-09-06T04:32:36.908Z,15.54
2022-09-06T04:35:04.229Z,15.53
2022-09-06T04:37:31.166Z,15.39
2022-09-06T04:39:58.272Z,15.34
2022-09-06T04:42:25.185Z,15.41
2022-09-06T04:44:52.001Z,15.39
2022-09-06T04:47:19.348Z,15.45
2022-09-06T04:49:46.731Z,15.52
2022-09-06T04:52:13.619Z,15.52
2022-09-06T04:54:40.498Z,15.59
2022-09-06T04:57:07.499Z,15.70
2022-09-06T04:59:34.535Z,15.73
2022-09-06T05:02:01.492Z,15.77
2022-09-06T05:04:28.501Z,15.86
2022-09-06T05:07:06.297Z,15.97
2022-09-06T05:09:33.794Z,16.00
2022-09-06T05:12:01.250Z,16.13
2022-09-06T05:14:28.883Z,16.33
2022-09-06T05:16:56.146Z,17.92
2022-09-06T05:19:23.198Z,18.61
2022-09-06T05:21:51.619Z,18.38
2022-09-06T05:24:18.660Z,18.70
2022-09-06T05:26:45.631Z,19.12
2022-09-06T05:29:12.580Z,18.93
2022-09-06T05:31:39.619Z,18.94
2022-09-06T05:34:06.795Z,18.47
2022-09-06T05:36:33.951Z,18.94
2022-09-06T05:39:00.884Z,19.22
2022-09-06T05:41:28.095Z,18.74
2022-09-06T05:43:55.163Z,18.57
2022-09-06T05:46:22.225Z,18.48
2022-09-06T05:49:07.913Z,18.57
2022-09-06T05:51:34.779Z,18.64
2022-09-06T05:54:01.704Z,18.77
2022-09-06T05:56:28.675Z,18.79
2022-09-06T05:58:55.747Z,18.72
2022-09-06T06:01:27.693Z,18.91
2022-09-06T06:04:03.020Z,19.18
2022-09-06T06:06:32.047Z,19.52
2022-09-06T06:08:59.617Z,19.87
2022-09-06T06:11:27.572Z,20.20
2022-09-06T06:13:54.517Z,20.44
2022-09-06T06:16:22.709Z,20.61
2022-09-06T06:18:52.289Z,20.92
2022-09-06T06:21:21.425Z,21.14
2022-09-06T06:23:51.636Z,21.29
2022-09-06T06:26:18.895Z,21.48
2022-09-06T06:28:45.877Z,21.56
2022-09-06T06:31:13.153Z,21.64
2022-09-06T06:33:40.431Z,21.96
2022-09-06T06:36:13.342Z,22.00
2022-09-06T06:38:42.629Z,22.06
2022-09-06T06:41:11.633Z,22.09
2022-09-06T06:43:38.968Z,22.16
2022-09-06T06:46:08.602Z,22.15
2022-09-06T06:48:36.940Z,22.36
2022-09-06T06:51:03.988Z,22.48
2022-09-06T06:53:30.863Z,22.49
2022-09-06T06:55:57.693Z,22.58
2022-09-06T06:58:24.794Z,22.63
2022-09-06T07:00:51.715Z,22.33
2022-09-06T07:03:18.655Z,22.76
2022-09-06T07:08:36.666Z,22.97
2022-09-06T07:11:04.343Z,22.79
2022-09-06T07:13:31.492Z,22.26
2022-09-06T07:16:20.602Z,22.49
2022-09-06T07:18:51.211Z,22.77
2022-09-06T07:21:42.334Z,23.03
2022-09-06T07:24:09.773Z,22.83
2022-09-06T07:26:39.578Z,23.04
2022-09-06T07:29:07.622Z,23.08
2022-09-06T07:34:22.153Z,23.61
2022-09-06T07:36:52.581Z,22.98
2022-09-06T07:39:19.677Z,23.20
2022-09-06T07:41:48.878Z,23.54
2022-09-06T07:44:15.853Z,22.98
2022-09-06T07:46:42.988Z,23.29
2022-09-06T07:49:09.898Z,22.87
2022-09-06T07:51:36.990Z,22.65
2022-09-06T07:54:34.676Z,23.40
2022-09-06T07:56:51.842Z,24.36
2022-09-06T07:59:18.753Z,23.89
2022-09-06T08:01:47.562Z,24.80
2022-09-06T08:04:15.208Z,24.77
2022-09-06T08:09:35.221Z,24.29
2022-09-06T08:12:06.873Z,25.42
2022-09-06T08:14:35.105Z,25.47
2022-09-06T08:17:05.015Z,24.80
2022-09-06T08:19:32.032Z,24.63
2022-09-06T08:21:59.004Z,24.62
2022-09-06T08:24:25.937Z,25.23
2022-09-06T08:26:52.815Z,25.60
2022-09-06T08:29:22.722Z,25.49
2022-09-06T08:31:49.621Z,25.04
2022-09-06T08:34:16.575Z,25.50
2022-09-06T08:36:44.233Z,25.88
2022-09-06T08:39:11.644Z,26.03
2022-09-06T08:42:01.411Z,26.11
2022-09-06T08:45:12.321Z,26.24
2022-09-06T08:47:39.301Z,25.17
2022-09-06T08:50:07.545Z,24.79
2022-09-06T08:53:17.095Z,24.89
2022-09-06T08:56:03.219Z,24.93
2022-09-06T08:59:09.385Z,25.15
2022-09-06T09:02:09.269Z,25.31
2022-09-06T09:04:40.300Z,25.40
2022-09-06T09:07:16.996Z,25.23
2022-09-06T09:09:43.864Z,25.61
2022-09-06T09:12:12.292Z,25.99
2022-09-06T09:14:39.960Z,26.19
2022-09-06T09:17:22.278Z,26.37
2022-09-06T09:19:49.346Z,26.13
2022-09-06T09:22:19.057Z,26.04
2022-09-06T09:24:47.616Z,24.61
2022-09-06T09:27:18.915Z,25.14
2022-09-06T09:32:46.138Z,25.43
2022-09-06T09:35:36.708Z,25.20
2022-09-06T09:38:12.252Z,25.01
2022-09-06T09:40:41.911Z,25.60
2022-09-06T09:43:15.388Z,25.39
2022-09-06T09:45:42.365Z,25.59
2022-09-06T09:48:27.253Z,25.89
2022-09-06T09:50:55.267Z,25.85
2022-09-06T09:53:23.449Z,24.73
2022-09-06T09:55:56.577Z,25.85
2022-09-06T09:58:30.835Z,26.16
2022-09-06T10:01:18.914Z,25.88
2022-09-06T10:09:23.106Z,26.01
2022-09-06T10:11:55.797Z,25.92
2022-09-06T10:14:33.851Z,26.76
2022-09-06T10:17:00.822Z,27.07
2022-09-06T10:19:41.085Z,27.20
2022-09-06T10:22:41.762Z,27.22
2022-09-06T10:25:39.164Z,26.90
2022-09-06T10:28:11.295Z,26.22
2022-09-06T10:30:51.489Z,26.33
2022-09-06T10:33:35.345Z,26.87
2022-09-06T10:36:03.562Z,27.14
2022-09-06T10:39:01.612Z,27.11
2022-09-06T10:41:55.311Z,27.39
2022-09-06T10:44:37.297Z,27.36
2022-09-06T10:47:14.751Z,26.45
2022-09-06T10:49:45.480Z,26.46
2022-09-06T10:52:17.559Z,27.07
2022-09-06T10:54:47.311Z,27.40
2022-09-06T11:00:14.735Z,27.44
2022-09-06T11:02:47.455Z,27.71
2022-09-06T11:05:40.828Z,27.29
2022-09-06T11:11:05.535Z,27.71
2022-09-06T11:13:32.527Z,27.83
2022-09-06T11:16:05.199Z,27.08
2022-09-06T11:18:50.751Z,27.63
2022-09-06T11:21:35.692Z,27.78
2022-09-06T11:24:13.136Z,28.26
2022-09-06T11:27:16.192Z,28.25
2022-09-06T11:29:46.211Z,27.73
2022-09-06T11:32:28.022Z,28.41
2022-09-06T11:34:57.010Z,28.82
2022-09-06T11:37:33.938Z,29.11
2022-09-06T11:42:51.755Z,29.10
2022-09-06T11:45:23.896Z,28.95
2022-09-06T11:47:52.435Z,28.86
2022-09-06T11:50:22.471Z,27.61
2022-09-06T11:52:55.691Z,28.18
2022-09-06T11:55:25.263Z,28.36
2022-09-06T11:57:58.410Z,28.20
2022-09-06T12:00:26.007Z,27.88
2022-09-06T12:02:53.755Z,28.20
2022-09-06T12:05:30.486Z,28.49
2022-09-06T12:08:31.004Z,27.92
2022-09-06T12:11:02.234Z,28.76
2022-09-06T12:13:40.039Z,28.86
2022-09-06T12:16:07.681Z,28.99
2022-09-06T12:18:43.891Z,28.95
2022-09-06T12:21:38.396Z,28.80
2022-09-06T12:24:08.449Z,28.87
2022-09-06T12:26:55.731Z,28.86
2022-09-06T12:29:27.151Z,28.65
2022-09-06T12:31:56.869Z,28.60
2022-09-06T12:34:30.431Z,28.43
2022-09-06T12:37:09.209Z,28.48
2022-09-06T12:39:36.234Z,28.55
2022-09-06T12:42:11.136Z,28.54
2022-09-06T12:44:41.608Z,28.13
2022-09-06T12:47:20.532Z,28.07
2022-09-06T12:49:47.670Z,28.24
2022-09-06T12:52:16.635Z,28.43
2022-09-06T12:54:48.841Z,28.68
2022-09-06T12:57:21.909Z,28.73
2022-09-06T12:59:51.027Z,28.95
2022-09-06T13:02:48.502Z,29.12
2022-09-06T13:05:15.502Z,29.29
2022-09-06T13:07:49.125Z,29.34
2022-09-06T13:10:18.472Z,29.04
2022-09-06T13:12:47.977Z,29.26
2022-09-06T13:15:33.530Z,29.36
2022-09-06T13:18:40.408Z,29.51
2022-09-06T13:21:12.079Z,29.50
2022-09-06T13:23:47.570Z,29.45
2022-09-06T13:26:15.227Z,29.51
2022-09-06T13:28:42.190Z,29.14
2022-09-06T13:31:11.893Z,29.24
2022-09-06T13:33:40.513Z,29.27
2022-09-06T13:36:13.242Z,29.37
2022-09-06T13:38:40.765Z,29.43
2022-09-06T13:41:27.858Z,29.43
2022-09-06T13:44:06.939Z,29.30
2022-09-06T13:46:36.896Z,29.03
2022-09-06T13:49:05.735Z,29.11
2022-09-06T13:51:33.484Z,29.27
2022-09-06T13:54:07.836Z,29.36
2022-09-06T13:56:35.412Z,29.37
2022-09-06T13:59:02.977Z,29.33
2022-09-06T14:01:30.062Z,29.45
2022-09-06T14:03:57.613Z,29.45
2022-09-06T14:06:24.525Z,29.02
2022-09-06T14:09:08.261Z,29.00
2022-09-06T14:11:36.149Z,28.95
2022-09-06T14:14:03.390Z,28.68
2022-09-06T14:16:30.624Z,28.67
2022-09-06T14:18:58.208Z,28.66
2022-09-06T14:21:25.169Z,28.62
2022-09-06T14:23:52.786Z,28.84
2022-09-06T14:26:21.074Z,28.72
2022-09-06T14:28:48.522Z,28.73
2022-09-06T14:31:18.237Z,28.57
2022-09-06T14:33:45.350Z,28.49
2022-09-06T14:36:20.497Z,28.33
2022-09-06T14:38:48.072Z,28.17
2022-09-06T14:41:16.193Z,27.98
2022-09-06T14:43:44.119Z,27.81
2022-09-06T14:46:13.788Z,27.68
2022-09-06T14:48:42.502Z,27.58
2022-09-06T14:51:10.468Z,27.26
2022-09-06T14:53:42.105Z,27.24
2022-09-06T14:56:10.257Z,26.89
2022-09-06T14:58:38.694Z,25.71
2022-09-06T15:01:10.907Z,24.08
2022-09-06T15:03:37.824Z,23.77
2022-09-06T15:06:05.134Z,23.83
2022-09-06T15:08:32.238Z,23.50
2022-09-06T15:10:59.143Z,23.36
2022-09-06T15:13:27.046Z,23.26
2022-09-06T15:15:57.501Z,23.30
2022-09-06T15:18:24.609Z,23.37
2022-09-06T15:20:51.562Z,23.33
2022-09-06T15:23:25.929Z,23.43
2022-09-06T15:25:54.133Z,23.40
2022-09-06T15:28:21.312Z,23.39
2022-09-06T15:37:35.331Z,22.74
2022-09-06T15:40:02.599Z,22.58
2022-09-06T15:42:29.621Z,22.44
2022-09-06T15:44:56.755Z,22.59
2022-09-06T15:47:23.719Z,22.53
2022-09-06T15:49:50.900Z,22.47
2022-09-06T15:52:17.732Z,22.57
2022-09-06T15:55:03.448Z,22.16
2022-09-06T15:57:30.421Z,22.13
2022-09-06T15:59:57.323Z,22.08
2022-09-06T16:02:24.232Z,22.03
2022-09-06T16:04:51.847Z,21.95
2022-09-06T16:07:18.823Z,21.90
2022-09-06T16:09:45.851Z,21.87
2022-09-06T16:12:12.763Z,21.91
2022-09-06T16:14:39.648Z,21.85
2022-09-06T16:17:06.732Z,21.84
2022-09-06T16:19:33.716Z,21.99
2022-09-06T16:22:01.044Z,22.06
2022-09-06T16:24:28.270Z,22.01
2022-09-06T16:26:55.192Z,21.99
2022-09-06T16:29:22.208Z,21.96
2022-09-06T16:31:49.136Z,21.98
2022-09-06T16:34:16.281Z,22.04
2022-09-06T16:36:43.553Z,21.79
2022-09-06T16:39:15.713Z,21.68
2022-09-06T16:41:45.804Z,21.89
2022-09-06T16:44:16.751Z,21.68
2022-09-06T16:46:49.431Z,21.67
2022-09-06T16:49:19.399Z,21.71
2022-09-06T16:51:48.123Z,21.82
2022-09-06T16:54:15.680Z,21.83
2022-09-06T16:56:43.275Z,21.88
2022-09-06T16:59:11.936Z,21.70
2022-09-06T17:01:41.843Z,21.77
2022-09-06T17:04:09.780Z,21.35
2022-09-06T17:06:44.064Z,21.16
2022-09-06T17:09:15.914Z,21.16
2022-09-06T17:11:42.982Z,21.16
2022-09-06T17:14:10.033Z,21.17
2022-09-06T17:16:55.982Z,21.30
2022-09-06T17:19:23.513Z,21.32
2022-09-06T17:21:50.769Z,21.39
2022-09-06T17:24:17.864Z,21.19
2022-09-06T17:26:44.725Z,21.25
2022-09-06T17:29:11.857Z,21.36
2022-09-06T17:31:38.818Z,21.36
2022-09-06T17:34:06.876Z,21.24
2022-09-06T17:36:35.077Z,21.13
2022-09-06T17:39:10.567Z,21.18
2022-09-06T17:41:39.938Z,21.21
2022-09-06T17:44:10.494Z,21.19
2022-09-06T17:46:47.717Z,21.07
2022-09-06T17:49:25.790Z,21.05
2022-09-06T17:51:52.913Z,21.07
2022-09-06T17:54:19.849Z,21.12
2022-09-06T17:56:47.311Z,21.14
2022-09-06T17:59:15.542Z,21.04
2022-09-06T18:01:44.684Z,20.91
2022-09-06T18:04:12.565Z,20.73
2022-09-06T18:06:41.258Z,20.73
2022-09-06T18:09:11.334Z,20.68
2022-09-06T18:11:39.879Z,20.66
2022-09-06T18:14:09.980Z,20.43
2022-09-06T18:16:38.598Z,20.31
2022-09-06T18:19:07.696Z,20.30
2022-09-06T18:21:37.621Z,20.38
2022-09-06T18:24:05.343Z,20.52
2022-09-06T18:26:32.255Z,20.51
2022-09-06T18:28:59.625Z,20.62
2022-09-06T18:31:27.690Z,20.71
2022-09-06T18:33:58.017Z,20.67
2022-09-06T18:36:31.221Z,20.73
2022-09-06T18:39:02.897Z,20.75
2022-09-06T18:41:48.852Z,20.81
2022-09-06T18:44:16.637Z,20.81
2022-09-06T18:46:43.871Z,20.74
2022-09-06T18:49:13.555Z,20.77
2022-09-06T18:51:40.815Z,20.79
2022-09-06T18:54:07.890Z,20.75
2022-09-06T18:56:34.902Z,20.78
2022-09-06T18:59:02.239Z,20.77
2022-09-06T19:01:30.053Z,20.74
2022-09-06T19:04:01.123Z,20.67
2022-09-06T19:06:29.497Z,20.56
2022-09-06T19:09:00.870Z,20.54
2022-09-06T19:11:28.098Z,20.58
2022-09-06T19:13:56.263Z,20.61
2022-09-06T19:16:25.223Z,20.60
2022-09-06T19:18:55.168Z,20.49
2022-09-06T19:21:24.785Z,20.34
2022-09-06T19:23:59.643Z,19.95
2022-09-06T19:26:28.244Z,19.73
2022-09-06T19:28:57.270Z,19.80
2022-09-06T19:31:26.984Z,19.74
2022-09-06T19:33:55.129Z,19.73
2022-09-06T19:36:23.811Z,19.78
2022-09-06T19:39:03.477Z,19.79
2022-09-06T19:41:34.077Z,19.85
2022-09-06T19:44:01.702Z,19.68
2022-09-06T19:46:28.766Z,19.84
2022-09-06T19:48:58.875Z,19.89
2022-09-06T19:51:26.075Z,19.94
2022-09-06T19:53:55.165Z,19.88
2022-09-06T19:56:27.631Z,19.86
2022-09-06T19:58:57.159Z,19.80
2022-09-06T20:01:25.605Z,19.85
2022-09-06T20:03:52.710Z,19.83
2022-09-06T20:06:19.722Z,19.80
2022-09-06T20:08:50.195Z,19.73
2022-09-06T20:11:17.401Z,19.61
2022-09-06T20:13:44.592Z,19.63
2022-09-06T20:16:12.906Z,19.56
2022-09-06T20:18:40.489Z,19.61
2022-09-06T20:21:13.820Z,19.61
2022-09-06T20:23:41.389Z,19.54
2022-09-06T20:26:13.456Z,19.54
2022-09-06T20:28:40.769Z,19.53
2022-09-06T20:31:13.430Z,19.52
2022-09-06T20:33:40.539Z,19.46
2022-09-06T20:36:08.923Z,19.31
2022-09-06T20:38:38.075Z,19.23
2022-09-06T20:41:07.207Z,19.22
2022-09-06T20:43:36.691Z,19.22
2022-09-06T20:46:06.011Z,19.22
2022-09-06T20:48:34.770Z,19.15
2022-09-06T20:51:04.232Z,19.14
2022-09-06T20:53:34.515Z,19.08
2022-09-06T20:56:04.126Z,18.99
2022-09-06T20:58:35.025Z,18.82
2022-09-06T21:01:06.477Z,18.69
2022-09-06T21:03:37.143Z,18.74
2022-09-06T21:06:04.627Z,18.77
2022-09-06T21:08:35.016Z,18.65
2022-09-06T21:11:04.887Z,18.49
2022-09-06T21:13:33.475Z,18.13
2022-09-06T21:16:00.680Z,17.91
2022-09-06T21:18:29.215Z,17.89
2022-09-06T21:21:00.558Z,17.90
2022-09-06T21:23:29.283Z,17.98
2022-09-06T21:26:00.814Z,18.08
2022-09-06T21:28:30.729Z,18.14
2022-09-06T21:31:12.202Z,18.15
2022-09-06T21:33:44.372Z,18.18
2022-09-06T21:36:13.780Z,18.05
2022-09-06T21:38:42.700Z,17.90
2022-09-06T21:41:11.473Z,17.98
2022-09-06T21:43:38.382Z,18.03
2022-09-06T21:46:10.945Z,18.05
2022-09-06T21:48:42.270Z,18.04
2022-09-06T21:51:10.607Z,18.08
2022-09-06T21:53:37.601Z,18.06
2022-09-06T21:56:05.167Z,18.08
2022-09-06T21:58:32.795Z,18.02
2022-09-06T22:01:01.206Z,18.02
2022-09-06T22:03:30.515Z,17.99
2022-09-06T22:05:57.707Z,17.97
2022-09-06T22:08:25.711Z,17.91
2022-09-06T22:10:52.794Z,17.77
2022-09-06T22:13:20.409Z,17.65
2022-09-06T22:15:47.414Z,17.66
2022-09-06T22:18:14.292Z,17.66
2022-09-06T22:20:41.158Z,17.66
2022-09-06T22:23:08.609Z,17.66
2022-09-06T22:25:35.497Z,17.71
2022-09-06T22:28:02.549Z,17.67
2022-09-06T22:30:30.089Z,17.50
2022-09-06T22:32:57.260Z,17.48
2022-09-06T22:35:24.199Z,17.34
2022-09-06T22:37:51.089Z,17.37
2022-09-06T22:40:17.903Z,17.00
2022-09-06T22:42:44.750Z,16.89
2022-09-06T22:45:11.672Z,17.08
2022-09-06T22:47:38.544Z,17.14
2022-09-06T22:50:06.811Z,17.13
2022-09-06T22:52:33.727Z,17.17
2022-09-06T22:55:00.620Z,17.19
2022-09-06T22:57:27.553Z,17.15
2022-09-06T22:59:54.476Z,16.99
2022-09-06T23:02:21.432Z,17.01
2022-09-06T23:04:48.579Z,17.03
2022-09-06T23:07:15.493Z,16.90
2022-09-06T23:09:42.396Z,16.75
2022-09-06T23:12:09.260Z,16.77
2022-09-06T23:14:36.104Z,16.70
2022-09-06T23:17:03.060Z,16.68
2022-09-06T23:19:30.036Z,16.66
2022-09-06T23:21:56.900Z,16.77
2022-09-06T23:24:23.720Z,16.73
2022-09-06T23:26:50.689Z,16.72
2022-09-06T23:29:17.528Z,16.57
2022-09-06T23:31:44.445Z,16.64
2022-09-06T23:34:11.435Z,16.73
2022-09-06T23:36:38.401Z,16.75
2022-09-06T23:39:07.157Z,16.83
2022-09-06T23:41:34.803Z,16.86
2022-09-06T23:44:01.981Z,16.86
2022-09-06T23:46:29.212Z,16.89
2022-09-06T23:48:56.131Z,16.91
2022-09-06T23:51:23.135Z,16.92
2022-09-06T23:53:49.959Z,16.94
2022-09-06T23:56:16.949Z,16.96
2022-09-06T23:58:43.852Z,16.90
